Darstellungsparameter: Aktuell verwendete Einstellungen:
Skalierung der Graphiken ... ?
xyx+y,   Skalierungsfaktor:      Skalierung: Modus: x, Faktor: 1
Darstellungszeitraum ... ?
Vom - - bis: - -   Zeitraum: 06.06.2011 - 12.06.2011
Min/Max/Avg-Anzeige ... ?
Zeige MMA aktuell
Zeige MMA Monat
Zeige MMA alles
Zeige --A aktuell
Zeige --A Monat
Zeige --A alles
Keine MMA-Anzeige
MMA:
Average (ber die Originaldaten)
MMA-Basis: 06.06.2011 - 12.06.2011
Quicknavigation für Darstellung... ?
Tage:      1T, 2T, 3T, 5T -1T -2T -3T -5T +1T +2T +3T +5T
Wochen: 1W, 2W, 3W -1W -2W -3W +1W +2W +3W
Monate: 1M, 3M, 6M -1M -3M -6M +1M +3M +6M
Jahre:    1J, 3J, 5J, 10J -1J -3J -5J -10J +1J +3J +5J +10J
Nutze für die Darstellung ... ?
Originaldaten oder Mittelwerte auf ...
Stundenbasis Tagesbasis Wochenbasis
Monatsbasis Jahresbasis      Datenbasis: Original-Daten
Darstellen als:
Statistik (Auto) Statistik J:M      Darstellung:
Zur Graphik,    zurück zur Übersicht aller Sensoren.
 
Tabellarische Datenbersicht: ?
 
Sensor: Nr:Datum:Temp:Abs-Feuchte:Windchill:Wind:
Aussen-T/F 1 06-06-2011 00:06:05 15.3 C 11.62 g/m*3 15.3 C 0 km/h
2 06-06-2011 00:18:05 15.3 C 11.75 g/m*3 15.3 C 0 km/h
3 06-06-2011 00:30:06 14.9 C 11.47 g/m*3 14.9 C 0 km/h
4 06-06-2011 00:42:06 15 C 11.41 g/m*3 15 C 0 km/h
5 06-06-2011 00:54:06 15 C 11.54 g/m*3 15 C 0 km/h
6 06-06-2011 01:06:06 15.1 C 11.61 g/m*3 15.1 C 0 km/h
7 06-06-2011 01:18:06 15.1 C 11.61 g/m*3 15.1 C 0 km/h
8 06-06-2011 01:30:06 14.9 C 11.6 g/m*3 14.9 C 0 km/h
9 06-06-2011 01:42:06 15 C 11.54 g/m*3 15 C 0 km/h
10 06-06-2011 01:54:06 15 C 11.54 g/m*3 15 C 0 km/h
11 06-06-2011 02:06:06 15.1 C 11.61 g/m*3 15.1 C 0 km/h
12 06-06-2011 02:18:06 15.1 C 11.61 g/m*3 15.1 C 0 km/h
13 06-06-2011 02:30:06 15.1 C 11.61 g/m*3 15.1 C 0 km/h
14 06-06-2011 02:42:06 15 C 11.54 g/m*3 15 C 0 km/h
15 06-06-2011 02:54:06 15 C 11.54 g/m*3 15 C 0 km/h
16 06-06-2011 03:06:06 15.1 C 11.61 g/m*3 15.1 C 0 km/h
17 06-06-2011 03:18:06 14.9 C 11.6 g/m*3 14.9 C 0 km/h
18 06-06-2011 03:30:06 15 C 11.54 g/m*3 15 C 0 km/h
19 06-06-2011 03:42:06 14.5 C 11.32 g/m*3 14.5 C 0 km/h
20 06-06-2011 03:54:06 14.4 C 11.25 g/m*3 14.4 C 0 km/h
21 06-06-2011 04:06:06 14.4 C 11.25 g/m*3 14.4 C 0 km/h
22 06-06-2011 04:18:06 13.8 C 10.84 g/m*3 13.8 C 0 km/h
23 06-06-2011 04:30:06 14 C 10.98 g/m*3 14 C 0 km/h
24 06-06-2011 04:42:07 14 C 10.98 g/m*3 14 C 0 km/h
25 06-06-2011 04:54:07 13.7 C 10.78 g/m*3 13.7 C 0 km/h
Sensor: Nr:Datum:Temp:Abs-Feuchte:Windchill:Wind:
Aussen-T/F 26 06-06-2011 05:06:07 14 C 10.98 g/m*3 14 C 0 km/h
27 06-06-2011 05:18:07 13.6 C 10.71 g/m*3 13.6 C 0 km/h
28 06-06-2011 05:30:07 13.6 C 10.71 g/m*3 13.6 C 0 km/h
29 06-06-2011 05:42:07 13.5 C 10.64 g/m*3 13.5 C 0 km/h
30 06-06-2011 05:54:07 13.7 C 10.78 g/m*3 13.7 C 0 km/h
31 06-06-2011 06:06:07 13.7 C 10.78 g/m*3 13.7 C 0 km/h
32 06-06-2011 06:18:07 14 C 10.98 g/m*3 14 C 0 km/h
33 06-06-2011 06:30:07 14.2 C 11.11 g/m*3 14.2 C 0 km/h
34 06-06-2011 06:42:07 14.4 C 11.25 g/m*3 14.4 C 0 km/h
35 06-06-2011 06:54:07 14.8 C 11.53 g/m*3 14.8 C 0 km/h
36 06-06-2011 07:06:07 14.9 C 11.6 g/m*3 14.9 C 0 km/h
37 06-06-2011 07:18:04 15.2 C 11.68 g/m*3 15.2 C 0 km/h
38 06-06-2011 07:30:04 15.4 C 11.82 g/m*3 15.4 C 0 km/h
39 06-06-2011 07:42:04 15.5 C 11.9 g/m*3 15.5 C 0 km/h
40 06-06-2011 07:54:03 15.7 C 12.04 g/m*3 15.7 C 0 km/h
41 06-06-2011 08:06:02 16.1 C 12.34 g/m*3 16.1 C 0 km/h
42 06-06-2011 08:18:02 16.8 C 12.87 g/m*3 16.8 C 0 km/h
43 06-06-2011 08:30:02 17 C 12.88 g/m*3 17 C 0 km/h
44 06-06-2011 08:42:02 18.3 C 13.76 g/m*3 18.3 C 0 km/h
45 06-06-2011 08:54:02 18.1 C 13.44 g/m*3 18.1 C 0 km/h
46 06-06-2011 09:06:01 18.3 C 13.29 g/m*3 18.3 C 0 km/h
47 06-06-2011 09:18:02 18.1 C 12.82 g/m*3 18.1 C 0 km/h
48 06-06-2011 09:30:02 18.1 C 12.98 g/m*3 18.1 C 0 km/h
49 06-06-2011 09:42:02 18.3 C 12.98 g/m*3 18.3 C 0 km/h
50 06-06-2011 09:54:02 18.8 C 13.37 g/m*3 18.8 C 0 km/h
Sensor: Nr:Datum:Temp:Abs-Feuchte:Windchill:Wind:
Aussen-T/F 51 06-06-2011 10:06:02 19 C 13.53 g/m*3 19 C 0 km/h
52 06-06-2011 10:18:02 19.6 C 13.34 g/m*3 19.6 C 0 km/h
53 06-06-2011 10:30:02 20.7 C 13.14 g/m*3 20.7 C 0 km/h
54 06-06-2011 10:42:02 21.3 C 11.93 g/m*3 21.3 C 0 km/h
55 06-06-2011 10:54:02 21.4 C 12 g/m*3 21.4 C 0 km/h
56 06-06-2011 11:06:02 21.9 C 11.77 g/m*3 21.9 C 0 km/h
57 06-06-2011 11:18:02 22.9 C 10.83 g/m*3 22.9 C 0 km/h
58 06-06-2011 11:30:02 21.5 C 10.75 g/m*3 21.5 C 0 km/h
59 06-06-2011 11:42:02 22.3 C 10.86 g/m*3 22.3 C 0 km/h
60 06-06-2011 11:54:02 22.9 C 11.24 g/m*3 22.9 C 0 km/h
61 06-06-2011 12:06:02 23 C 11.1 g/m*3 23 C 0 km/h
62 06-06-2011 12:18:02 22.9 C 10.83 g/m*3 22.9 C 0 km/h
63 06-06-2011 12:30:02 23.5 C 10.79 g/m*3 23.5 C 0 km/h
64 06-06-2011 12:42:02 23.9 C 11.03 g/m*3 23.9 C 0 km/h
65 06-06-2011 12:54:02 24.2 C 10.78 g/m*3 24.2 C 0 km/h
66 06-06-2011 13:06:01 24.6 C 11.25 g/m*3 24.6 C 0 km/h
67 06-06-2011 13:18:02 24.6 C 10.35 g/m*3 24.6 C 0 km/h
68 06-06-2011 13:30:02 29.1 C 10.11 g/m*3 29.1 C 0 km/h
69 06-06-2011 13:42:01 27.8 C 9.95 g/m*3 27.8 C 0 km/h
70 06-06-2011 13:54:02 27 C 9.01 g/m*3 27 C 0 km/h
71 06-06-2011 14:06:01 28.3 C 9.68 g/m*3 28.3 C 0 km/h
72 06-06-2011 14:18:01 27.3 C 9.42 g/m*3 27.3 C 0 km/h
73 06-06-2011 14:30:01 26.7 C 9.37 g/m*3 26.7 C 0 km/h
74 06-06-2011 14:42:02 26.4 C 8.96 g/m*3 26.4 C 0 km/h
75 06-06-2011 14:54:02 26.5 C 10.01 g/m*3 26.5 C 0 km/h
Sensor: Nr:Datum:Temp:Abs-Feuchte:Windchill:Wind:
Aussen-T/F 76 06-06-2011 15:06:02 26.2 C 8.86 g/m*3 26.2 C 0 km/h
77 06-06-2011 15:18:01 25.8 C 9.87 g/m*3 25.8 C 0 km/h
78 06-06-2011 15:30:01 25.5 C 11.6 g/m*3 25.5 C 0 km/h
79 06-06-2011 15:42:02 27.2 C 10.15 g/m*3 27.2 C 0 km/h
80 06-06-2011 15:54:02 25.1 C 9.26 g/m*3 25.1 C 0 km/h
81 06-06-2011 16:06:02 24.8 C 10.24 g/m*3 24.8 C 0 km/h
82 06-06-2011 16:18:01 25.1 C 10.19 g/m*3 25.1 C 0 km/h
83 06-06-2011 16:30:01 26.1 C 10.28 g/m*3 26.1 C 0 km/h
84 06-06-2011 16:42:02 25.8 C 10.11 g/m*3 25.8 C 0 km/h
85 06-06-2011 16:54:02 23 C 8.63 g/m*3 23 C 0 km/h
86 06-06-2011 17:06:02 21.1 C 8.84 g/m*3 21.1 C 0 km/h
87 06-06-2011 17:18:01 18 C 9.83 g/m*3 18 C 0 km/h
88 06-06-2011 17:30:01 16.9 C 10.79 g/m*3 16.9 C 0 km/h
89 06-06-2011 17:42:02 16.4 C 10.89 g/m*3 16.4 C 0 km/h
90 06-06-2011 17:54:01 16.3 C 11.38 g/m*3 16.3 C 0 km/h
91 06-06-2011 18:06:02 16.4 C 11.72 g/m*3 16.4 C 0 km/h
92 06-06-2011 18:18:02 17 C 12.01 g/m*3 17 C 0 km/h
93 06-06-2011 18:30:02 16.8 C 12.01 g/m*3 16.8 C 0 km/h
94 06-06-2011 18:42:01 17.2 C 12.3 g/m*3 17.2 C 0 km/h
95 06-06-2011 18:54:02 17.2 C 12.3 g/m*3 17.2 C 0 km/h
96 06-06-2011 19:06:01 17.2 C 12.3 g/m*3 17.2 C 0 km/h
97 06-06-2011 19:18:02 17.5 C 12.67 g/m*3 17.5 C 0 km/h
98 06-06-2011 19:30:03 17.8 C 12.9 g/m*3 17.8 C 0 km/h
99 06-06-2011 19:42:01 18.1 C 12.82 g/m*3 18.1 C 0 km/h
100 06-06-2011 19:54:02 18.1 C 12.82 g/m*3 18.1 C 0 km/h
Sensor: Nr:Datum:Temp:Abs-Feuchte:Windchill:Wind:
Aussen-T/F 101 06-06-2011 20:06:02 18.1 C 12.67 g/m*3 18.1 C 0 km/h
102 06-06-2011 20:18:02 18.1 C 12.67 g/m*3 18.1 C 0 km/h
103 06-06-2011 20:30:02 18.1 C 12.67 g/m*3 18.1 C 0 km/h
104 06-06-2011 20:42:49 17.5 C 12.52 g/m*3 17.5 C 0 km/h
105 06-06-2011 20:54:49 17.2 C 12.45 g/m*3 17.2 C 0 km/h
106 06-06-2011 21:06:49 16.8 C 12.15 g/m*3 16.8 C 0 km/h
107 06-06-2011 21:18:03 16.5 C 12.08 g/m*3 16.5 C 0 km/h
108 06-06-2011 21:30:03 16.3 C 11.93 g/m*3 16.3 C 0 km/h
109 06-06-2011 21:42:02 16.2 C 12 g/m*3 16.2 C 0 km/h
110 06-06-2011 21:55:02 15.9 C 11.78 g/m*3 15.9 C 0 km/h
111 06-06-2011 22:07:02 15.9 C 11.92 g/m*3 15.9 C 0 km/h
112 06-06-2011 22:19:02 15.6 C 11.7 g/m*3 15.6 C 0 km/h
113 06-06-2011 22:31:02 15.3 C 11.49 g/m*3 15.3 C 0 km/h
114 06-06-2011 22:43:02 15.8 C 11.98 g/m*3 15.8 C 0 km/h
115 06-06-2011 22:55:02 15.6 C 11.84 g/m*3 15.6 C 0 km/h
116 06-06-2011 23:07:03 15.5 C 11.76 g/m*3 15.5 C 0 km/h
117 06-06-2011 23:19:03 15.7 C 11.91 g/m*3 15.7 C 0 km/h
118 06-06-2011 23:31:03 15.6 C 11.84 g/m*3 15.6 C 0 km/h
119 06-06-2011 23:43:03 15.6 C 11.84 g/m*3 15.6 C 0 km/h
120 06-06-2011 23:55:03 15.4 C 11.69 g/m*3 15.4 C 0 km/h
121 07-06-2011 00:07:03 15 C 11.41 g/m*3 15 C 0 km/h
122 07-06-2011 00:19:03 15.2 C 11.55 g/m*3 15.2 C 0 km/h
123 07-06-2011 00:31:03 15.2 C 11.55 g/m*3 15.2 C 0 km/h
124 07-06-2011 00:43:03 15.1 C 11.48 g/m*3 15.1 C 0 km/h
125 07-06-2011 00:55:03 15.2 C 11.55 g/m*3 15.2 C 0 km/h
Sensor: Nr:Datum:Temp:Abs-Feuchte:Windchill:Wind:
Aussen-T/F 126 07-06-2011 01:07:03 15.3 C 11.75 g/m*3 15.3 C 0 km/h
127 07-06-2011 01:19:03 15.3 C 11.75 g/m*3 15.3 C 0 km/h
128 07-06-2011 01:31:03 15.3 C 11.75 g/m*3 15.3 C 0 km/h
129 07-06-2011 01:43:03 15.5 C 11.9 g/m*3 15.5 C 0 km/h
130 07-06-2011 01:55:03 15.5 C 11.9 g/m*3 15.5 C 0 km/h
131 07-06-2011 02:07:03 15.6 C 11.97 g/m*3 15.6 C 0 km/h
132 07-06-2011 02:19:03 15.7 C 12.04 g/m*3 15.7 C 0 km/h
133 07-06-2011 02:31:03 15.7 C 12.04 g/m*3 15.7 C 0 km/h
134 07-06-2011 02:43:03 15.7 C 12.04 g/m*3 15.7 C 0 km/h
135 07-06-2011 02:55:03 15.5 C 11.9 g/m*3 15.5 C 0 km/h
136 07-06-2011 03:07:04 15.5 C 11.9 g/m*3 15.5 C 0 km/h
137 07-06-2011 03:19:04 15.4 C 11.82 g/m*3 15.4 C 0 km/h
138 07-06-2011 03:31:04 15 C 11.54 g/m*3 15 C 0 km/h
139 07-06-2011 03:43:04 14.9 C 11.6 g/m*3 14.9 C 0 km/h
140 07-06-2011 03:55:04 14.8 C 11.53 g/m*3 14.8 C 0 km/h
141 07-06-2011 04:07:04 15 C 11.54 g/m*3 15 C 0 km/h
142 07-06-2011 04:19:04 15.1 C 11.61 g/m*3 15.1 C 0 km/h
143 07-06-2011 04:31:04 15.2 C 11.68 g/m*3 15.2 C 0 km/h
144 07-06-2011 04:43:04 15.2 C 11.68 g/m*3 15.2 C 0 km/h
145 07-06-2011 04:55:04 15.1 C 11.61 g/m*3 15.1 C 0 km/h
146 07-06-2011 05:07:04 15 C 11.54 g/m*3 15 C 0 km/h
147 07-06-2011 05:19:04 15 C 11.54 g/m*3 15 C 0 km/h
148 07-06-2011 05:31:04 15 C 11.54 g/m*3 15 C 0 km/h
149 07-06-2011 05:43:04 15 C 11.54 g/m*3 15 C 0 km/h
150 07-06-2011 05:55:04 15 C 11.54 g/m*3 15 C 0 km/h
Sensor: Nr:Datum:Temp:Abs-Feuchte:Windchill:Wind:
Aussen-T/F 151 07-06-2011 06:07:04 14.7 C 11.33 g/m*3 14.7 C 0 km/h
152 07-06-2011 06:19:04 14.8 C 11.4 g/m*3 14.8 C 0 km/h
153 07-06-2011 06:31:04 14.8 C 11.4 g/m*3 14.8 C 0 km/h
154 07-06-2011 06:43:04 14.9 C 11.47 g/m*3 14.9 C 0 km/h
155 07-06-2011 06:55:04 15.2 C 11.42 g/m*3 15.2 C 0 km/h
156 07-06-2011 07:07:02 15.4 C 11.04 g/m*3 15.4 C 0 km/h
157 07-06-2011 07:19:02 15.7 C 10.84 g/m*3 15.7 C 0 km/h
158 07-06-2011 07:31:02 16 C 10.9 g/m*3 16 C 0 km/h
159 07-06-2011 07:43:02 16.2 C 10.76 g/m*3 16.2 C 0 km/h
160 07-06-2011 07:55:02 16.6 C 10.03 g/m*3 16.6 C 0 km/h
161 07-06-2011 08:07:02 16.9 C 9.92 g/m*3 16.9 C 0 km/h
162 07-06-2011 08:19:01 17.2 C 9.67 g/m*3 17.2 C 0 km/h
163 07-06-2011 08:31:02 17.8 C 9.87 g/m*3 17.8 C 0 km/h
164 07-06-2011 08:43:02 17.9 C 9.47 g/m*3 17.9 C 0 km/h
165 07-06-2011 08:55:02 18.2 C 8.86 g/m*3 18.2 C 0 km/h
166 07-06-2011 09:07:02 18.4 C 8.81 g/m*3 18.4 C 0 km/h
167 07-06-2011 09:19:01 18.5 C 8.54 g/m*3 18.5 C 0 km/h
168 07-06-2011 09:31:02 18.1 C 8.5 g/m*3 18.1 C 0 km/h
169 07-06-2011 09:43:02 18.4 C 8.81 g/m*3 18.4 C 0 km/h
170 07-06-2011 09:55:02 18.9 C 8.59 g/m*3 18.9 C 0 km/h
171 07-06-2011 10:07:02 18.8 C 8.21 g/m*3 18.8 C 0 km/h
172 07-06-2011 10:19:02 19.2 C 8.24 g/m*3 19.2 C 0 km/h
173 07-06-2011 10:31:02 19.1 C 8.03 g/m*3 19.1 C 0 km/h
174 07-06-2011 10:43:02 19.5 C 9.06 g/m*3 19.5 C 0 km/h
175 07-06-2011 10:55:02 19.1 C 8.85 g/m*3 19.1 C 0 km/h
Sensor: Nr:Datum:Temp:Abs-Feuchte:Windchill:Wind:
Aussen-T/F 176 07-06-2011 11:07:02 19.1 C 8.2 g/m*3 19.1 C 0 km/h
177 07-06-2011 11:19:02 19.2 C 8.41 g/m*3 19.2 C 0 km/h
178 07-06-2011 11:31:02 19.3 C 8.46 g/m*3 19.3 C 0 km/h
179 07-06-2011 11:43:02 19.5 C 8.39 g/m*3 19.5 C 0 km/h
180 07-06-2011 11:55:02 19.7 C 8.66 g/m*3 19.7 C 0 km/h
181 07-06-2011 12:07:02 20.8 C 8.69 g/m*3 20.8 C 0 km/h
182 07-06-2011 12:19:02 21.1 C 8.66 g/m*3 21.1 C 0 km/h
183 07-06-2011 12:31:02 21.1 C 8.48 g/m*3 21.1 C 0 km/h
184 07-06-2011 12:43:02 20.9 C 8.74 g/m*3 20.9 C 0 km/h
185 07-06-2011 12:55:02 21.2 C 8.52 g/m*3 21.2 C 0 km/h
186 07-06-2011 13:07:01 21.9 C 8.68 g/m*3 21.9 C 0 km/h
187 07-06-2011 13:19:02 22.3 C 8.89 g/m*3 22.3 C 0 km/h
188 07-06-2011 13:31:01 25.7 C 8.38 g/m*3 25.7 C 0 km/h
189 07-06-2011 13:43:01 29.1 C 8.66 g/m*3 29.1 C 0 km/h
190 07-06-2011 13:55:02 30.5 C 8.1 g/m*3 30.5 C 0 km/h
191 07-06-2011 14:07:01 30.3 C 8.32 g/m*3 30.3 C 0 km/h
192 07-06-2011 14:19:01 30.3 C 8.01 g/m*3 30.3 C 0 km/h
193 07-06-2011 14:31:02 28.9 C 7.71 g/m*3 28.9 C 0 km/h
194 07-06-2011 14:43:02 29 C 8.04 g/m*3 29 C 0 km/h
195 07-06-2011 14:55:02 27.1 C 8.02 g/m*3 27.1 C 0 km/h
196 07-06-2011 15:07:02 30.3 C 8.32 g/m*3 30.3 C 0 km/h
197 07-06-2011 15:19:02 29.5 C 8.26 g/m*3 29.5 C 0 km/h
198 07-06-2011 15:31:02 30 C 8.49 g/m*3 30 C 0 km/h
199 07-06-2011 15:43:02 30.5 C 8.1 g/m*3 30.5 C 0 km/h
200 07-06-2011 15:55:02 28.6 C 7.59 g/m*3 28.6 C 0 km/h
Sensor: Nr:Datum:Temp:Abs-Feuchte:Windchill:Wind:
Aussen-T/F 201 07-06-2011 16:07:02 30 C 7.88 g/m*3 30 C 0 km/h
202 07-06-2011 16:19:02 31.8 C 7.01 g/m*3 31.8 C 0 km/h
203 07-06-2011 16:31:02 30.1 C 7.62 g/m*3 30.1 C 0 km/h
204 07-06-2011 16:43:02 31.7 C 6.98 g/m*3 31.7 C 0 km/h
205 07-06-2011 16:55:02 32.1 C 6.79 g/m*3 32.1 C 0 km/h
206 07-06-2011 17:07:02 31.5 C 7.23 g/m*3 31.5 C 0 km/h
207 07-06-2011 17:19:03 29.9 C 8.14 g/m*3 29.9 C 0 km/h
208 07-06-2011 17:31:02 30.6 C 7.83 g/m*3 30.6 C 0 km/h
209 07-06-2011 17:43:02 29.3 C 8.17 g/m*3 29.3 C 0 km/h
210 07-06-2011 17:55:02 27.1 C 11.13 g/m*3 27.1 C 0 km/h
211 07-06-2011 18:07:01 24.3 C 11.29 g/m*3 24.3 C 0 km/h
212 07-06-2011 18:19:02 25.2 C 11.64 g/m*3 25.2 C 0 km/h
213 07-06-2011 18:31:01 29.7 C 8.95 g/m*3 29.7 C 0 km/h
214 07-06-2011 18:43:01 29.5 C 8.85 g/m*3 29.5 C 0 km/h
215 07-06-2011 18:55:02 28.3 C 9.4 g/m*3 28.3 C 0 km/h
216 07-06-2011 19:07:01 27.3 C 11.25 g/m*3 27.3 C 0 km/h
217 07-06-2011 19:19:01 27.7 C 11.77 g/m*3 27.7 C 0 km/h
218 07-06-2011 19:31:02 26.5 C 11.77 g/m*3 26.5 C 0 km/h
219 07-06-2011 19:43:02 24.5 C 11.41 g/m*3 24.5 C 0 km/h
220 07-06-2011 19:55:02 23.1 C 11.58 g/m*3 23.1 C 0 km/h
221 07-06-2011 20:07:02 22.1 C 11.71 g/m*3 22.1 C 0 km/h
222 07-06-2011 20:19:02 21.9 C 11.96 g/m*3 21.9 C 0 km/h
223 07-06-2011 20:31:02 21.2 C 11.49 g/m*3 21.2 C 0 km/h
224 07-06-2011 20:43:02 20.5 C 11.39 g/m*3 20.5 C 0 km/h
225 07-06-2011 20:55:02 20 C 11.06 g/m*3 20 C 0 km/h
Sensor: Nr:Datum:Temp:Abs-Feuchte:Windchill:Wind:
Aussen-T/F 226 07-06-2011 21:07:03 19.7 C 11.21 g/m*3 19.7 C 0 km/h
227 07-06-2011 21:19:02 19.6 C 10.97 g/m*3 19.6 C 0 km/h
228 07-06-2011 21:31:04 19.4 C 11.35 g/m*3 19.4 C 0 km/h
229 07-06-2011 21:43:04 19.1 C 11.15 g/m*3 19.1 C 0 km/h
230 07-06-2011 21:55:02 19 C 11.41 g/m*3 19 C 0 km/h
231 07-06-2011 22:07:02 18.5 C 11.39 g/m*3 18.5 C 0 km/h
232 07-06-2011 22:19:02 18.9 C 11.5 g/m*3 18.9 C 0 km/h
233 07-06-2011 22:32:01 19.7 C 11.21 g/m*3 19.7 C 0 km/h
234 07-06-2011 22:44:01 19.5 C 10.91 g/m*3 19.5 C 0 km/h
235 07-06-2011 22:56:01 19 C 11.41 g/m*3 19 C 0 km/h
236 07-06-2011 23:08:01 18.6 C 11.78 g/m*3 18.6 C 0 km/h
237 07-06-2011 23:20:01 18.5 C 11.87 g/m*3 18.5 C 0 km/h
238 07-06-2011 23:32:01 19.5 C 10.07 g/m*3 19.5 C 0 km/h
239 07-06-2011 23:44:01 19.1 C 9.51 g/m*3 19.1 C 0 km/h
240 07-06-2011 23:56:02 17.7 C 10.11 g/m*3 17.7 C 0 km/h
241 08-06-2011 00:08:02 16.8 C 11.29 g/m*3 16.8 C 0 km/h
242 08-06-2011 00:20:02 16.4 C 11.31 g/m*3 16.4 C 0 km/h
243 08-06-2011 00:32:02 16.4 C 11.45 g/m*3 16.4 C 0 km/h
244 08-06-2011 00:44:02 16.3 C 11.52 g/m*3 16.3 C 0 km/h
245 08-06-2011 00:56:02 16.2 C 11.58 g/m*3 16.2 C 0 km/h
246 08-06-2011 01:08:02 16.1 C 11.65 g/m*3 16.1 C 0 km/h
247 08-06-2011 01:20:02 16 C 11.72 g/m*3 16 C 0 km/h
248 08-06-2011 01:32:02 16 C 11.72 g/m*3 16 C 0 km/h
249 08-06-2011 01:44:02 16 C 11.85 g/m*3 16 C 0 km/h
250 08-06-2011 01:56:02 15.9 C 11.92 g/m*3 15.9 C 0 km/h
Sensor: Nr:Datum:Temp:Abs-Feuchte:Windchill:Wind:
Aussen-T/F 251 08-06-2011 02:08:02 15.7 C 11.77 g/m*3 15.7 C 0 km/h
252 08-06-2011 02:20:02 15.6 C 11.7 g/m*3 15.6 C 0 km/h
253 08-06-2011 02:32:02 15.5 C 11.63 g/m*3 15.5 C 0 km/h
254 08-06-2011 02:44:02 15.4 C 11.56 g/m*3 15.4 C 0 km/h
255 08-06-2011 02:56:02 15.4 C 11.56 g/m*3 15.4 C 0 km/h
256 08-06-2011 03:08:02 15.3 C 11.49 g/m*3 15.3 C 0 km/h
257 08-06-2011 03:20:02 15.2 C 11.55 g/m*3 15.2 C 0 km/h
258 08-06-2011 03:32:02 15.2 C 11.55 g/m*3 15.2 C 0 km/h
259 08-06-2011 03:44:02 15.2 C 11.55 g/m*3 15.2 C 0 km/h
260 08-06-2011 03:56:03 15.1 C 11.48 g/m*3 15.1 C 0 km/h
261 08-06-2011 04:08:03 15.1 C 11.48 g/m*3 15.1 C 0 km/h
262 08-06-2011 04:20:03 15.2 C 11.55 g/m*3 15.2 C 0 km/h
263 08-06-2011 04:32:03 15.1 C 11.48 g/m*3 15.1 C 0 km/h
264 08-06-2011 04:44:03 15.1 C 11.48 g/m*3 15.1 C 0 km/h
265 08-06-2011 04:56:03 15.1 C 11.48 g/m*3 15.1 C 0 km/h
266 08-06-2011 05:08:03 15 C 11.41 g/m*3 15 C 0 km/h
267 08-06-2011 05:20:03 14.9 C 11.47 g/m*3 14.9 C 0 km/h
268 08-06-2011 05:32:03 15 C 11.41 g/m*3 15 C 0 km/h
269 08-06-2011 05:44:03 15 C 11.41 g/m*3 15 C 0 km/h
270 08-06-2011 05:56:03 15.1 C 11.48 g/m*3 15.1 C 0 km/h
271 08-06-2011 06:08:03 15 C 11.41 g/m*3 15 C 0 km/h
272 08-06-2011 06:20:03 13.4 C 10.46 g/m*3 13.4 C 0 km/h
273 08-06-2011 06:32:03 12.6 C 9.96 g/m*3 12.6 C 0 km/h
274 08-06-2011 06:44:03 12.5 C 9.78 g/m*3 12.5 C 0 km/h
275 08-06-2011 06:56:03 12.4 C 9.51 g/m*3 12.4 C 0 km/h
Sensor: Nr:Datum:Temp:Abs-Feuchte:Windchill:Wind:
Aussen-T/F 276 08-06-2011 07:08:02 12.1 C 9.22 g/m*3 12.1 C 0 km/h
277 08-06-2011 07:20:01 12.1 C 9.12 g/m*3 12.1 C 0 km/h
278 08-06-2011 07:32:02 11.9 C 9.11 g/m*3 11.9 C 0 km/h
279 08-06-2011 07:44:02 11.8 C 9.05 g/m*3 11.8 C 0 km/h
280 08-06-2011 07:56:02 11.4 C 8.62 g/m*3 11.4 C 0 km/h
281 08-06-2011 08:08:02 11.4 C 8.72 g/m*3 11.4 C 0 km/h
282 08-06-2011 08:20:01 11.2 C 8.62 g/m*3 11.2 C 0 km/h
283 08-06-2011 08:32:02 11.5 C 8.88 g/m*3 11.5 C 0 km/h
284 08-06-2011 08:44:02 11.4 C 8.72 g/m*3 11.4 C 0 km/h
285 08-06-2011 08:56:01 11.3 C 8.57 g/m*3 11.3 C 0 km/h
286 08-06-2011 09:08:02 11.7 C 8.89 g/m*3 11.7 C 0 km/h
287 08-06-2011 09:20:02 11.8 C 8.95 g/m*3 11.8 C 0 km/h
288 08-06-2011 09:32:01 11.8 C 8.84 g/m*3 11.8 C 0 km/h
289 08-06-2011 09:44:01 12 C 8.95 g/m*3 12 C 0 km/h
290 08-06-2011 09:56:01 11.7 C 8.79 g/m*3 11.7 C 0 km/h
291 08-06-2011 10:08:01 11.9 C 8.9 g/m*3 11.9 C 0 km/h
292 08-06-2011 10:20:02 12.3 C 8.9 g/m*3 12.3 C 0 km/h
293 08-06-2011 10:32:01 12.4 C 8.85 g/m*3 12.4 C 0 km/h
294 08-06-2011 10:44:01 12.2 C 8.52 g/m*3 12.2 C 0 km/h
295 08-06-2011 10:56:03 12 C 8.1 g/m*3 12 C 0 km/h
296 08-06-2011 11:08:02 12.1 C 8.15 g/m*3 12.1 C 0 km/h
297 08-06-2011 11:20:02 12.4 C 8.19 g/m*3 12.4 C 0 km/h
298 08-06-2011 11:32:02 13.5 C 9.01 g/m*3 13.5 C 0 km/h
299 08-06-2011 11:44:02 14.1 C 7.89 g/m*3 14.1 C 0 km/h
300 08-06-2011 11:56:02 14.5 C 7.59 g/m*3 14.5 C 0 km/h
Sensor: Nr:Datum:Temp:Abs-Feuchte:Windchill:Wind:
Aussen-T/F 301 08-06-2011 12:08:01 15.4 C 7.75 g/m*3 15.4 C 0 km/h
302 08-06-2011 12:20:02 15.9 C 6.77 g/m*3 15.9 C 0 km/h
303 08-06-2011 12:32:02 15.8 C 6.6 g/m*3 15.8 C 0 km/h
304 08-06-2011 12:44:02 16.2 C 6.34 g/m*3 16.2 C 0 km/h
305 08-06-2011 12:56:02 17.3 C 6.48 g/m*3 17.3 C 0 km/h
306 08-06-2011 13:08:02 18 C 6.6 g/m*3 18 C 0 km/h
307 08-06-2011 13:20:02 18.6 C 7 g/m*3 18.6 C 0 km/h
308 08-06-2011 13:32:02 19.9 C 7.04 g/m*3 19.9 C 0 km/h
309 08-06-2011 13:44:02 22 C 6.6 g/m*3 22 C 0 km/h
310 08-06-2011 13:56:01 24.2 C 6.82 g/m*3 24.2 C 0 km/h
311 08-06-2011 14:08:02 20.5 C 6.58 g/m*3 20.5 C 0 km/h
312 08-06-2011 14:20:01 18.9 C 6.97 g/m*3 18.9 C 0 km/h
313 08-06-2011 14:32:01 18.6 C 7.16 g/m*3 18.6 C 0 km/h
314 08-06-2011 14:44:01 22.9 C 7.36 g/m*3 22.9 C 0 km/h
315 08-06-2011 14:56:01 19.6 C 6.75 g/m*3 19.6 C 0 km/h
316 08-06-2011 15:08:01 21.1 C 6.82 g/m*3 21.1 C 0 km/h
317 08-06-2011 15:20:01 22.4 C 6.75 g/m*3 22.4 C 0 km/h
318 08-06-2011 15:32:01 19.9 C 7.04 g/m*3 19.9 C 0 km/h
319 08-06-2011 15:44:01 20.3 C 7.03 g/m*3 20.3 C 0 km/h
320 08-06-2011 15:56:02 20.8 C 7.42 g/m*3 20.8 C 0 km/h
321 08-06-2011 16:08:02 20.3 C 6.16 g/m*3 20.3 C 0 km/h
322 08-06-2011 16:20:03 19.4 C 5.51 g/m*3 19.4 C 0 km/h
323 08-06-2011 16:32:02 20.4 C 5.66 g/m*3 20.4 C 0 km/h
324 08-06-2011 16:44:02 19.2 C 5.11 g/m*3 19.2 C 0 km/h
325 08-06-2011 16:56:02 20.9 C 5.28 g/m*3 20.9 C 0 km/h
Sensor: Nr:Datum:Temp:Abs-Feuchte:Windchill:Wind:
Aussen-T/F 326 08-06-2011 17:08:02 20.6 C 5.55 g/m*3 20.6 C 0 km/h
327 08-06-2011 17:20:02 20.9 C 5.46 g/m*3 20.9 C 0 km/h
328 08-06-2011 17:32:02 19.6 C 5.06 g/m*3 19.6 C 0 km/h
329 08-06-2011 17:44:02 18.9 C 5.67 g/m*3 18.9 C 0 km/h
330 08-06-2011 17:56:02 18.6 C 5.73 g/m*3 18.6 C 0 km/h
331 08-06-2011 18:08:02 19.4 C 5.51 g/m*3 19.4 C 0 km/h
332 08-06-2011 18:20:02 18.6 C 5.73 g/m*3 18.6 C 0 km/h
333 08-06-2011 18:32:02 18.2 C 6.22 g/m*3 18.2 C 0 km/h
334 08-06-2011 18:44:02 17.9 C 6.11 g/m*3 17.9 C 0 km/h
335 08-06-2011 18:56:02 17.6 C 6.3 g/m*3 17.6 C 0 km/h
336 08-06-2011 19:08:01 17.7 C 6.34 g/m*3 17.7 C 0 km/h
337 08-06-2011 19:20:02 17.4 C 6.97 g/m*3 17.4 C 0 km/h
338 08-06-2011 19:32:01 17.3 C 7.66 g/m*3 17.3 C 0 km/h
339 08-06-2011 19:44:01 17.3 C 7.22 g/m*3 17.3 C 0 km/h
340 08-06-2011 19:56:02 16.9 C 6.47 g/m*3 16.9 C 0 km/h
341 08-06-2011 20:08:01 16.3 C 7.08 g/m*3 16.3 C 0 km/h
342 08-06-2011 20:20:01 16.3 C 7.08 g/m*3 16.3 C 0 km/h
343 08-06-2011 20:32:02 16.3 C 7.08 g/m*3 16.3 C 0 km/h
344 08-06-2011 20:44:02 15 C 8.21 g/m*3 15 C 0 km/h
345 08-06-2011 20:56:02 14.9 C 8.16 g/m*3 14.9 C 0 km/h
346 08-06-2011 21:08:02 14.7 C 8.18 g/m*3 14.7 C 0 km/h
347 08-06-2011 21:20:02 14.4 C 8.03 g/m*3 14.4 C 0 km/h
348 08-06-2011 21:32:02 14.2 C 8.3 g/m*3 14.2 C 0 km/h
349 08-06-2011 21:44:02 14 C 8.32 g/m*3 14 C 0 km/h
350 08-06-2011 21:56:02 13.7 C 8.41 g/m*3 13.7 C 0 km/h
Sensor: Nr:Datum:Temp:Abs-Feuchte:Windchill:Wind:
Aussen-T/F 351 08-06-2011 22:08:02 13.6 C 8.47 g/m*3 13.6 C 0 km/h
352 08-06-2011 22:20:02 13.2 C 8.27 g/m*3 13.2 C 0 km/h
353 08-06-2011 22:32:03 13.4 C 8.49 g/m*3 13.4 C 0 km/h
354 08-06-2011 22:44:03 13.2 C 8.15 g/m*3 13.2 C 0 km/h
355 08-06-2011 22:56:03 13.2 C 8.04 g/m*3 13.2 C 0 km/h
356 08-06-2011 23:08:02 13.3 C 7.86 g/m*3 13.3 C 0 km/h
357 08-06-2011 23:21:04 13.4 C 7.79 g/m*3 13.4 C 0 km/h
358 08-06-2011 23:33:04 13.4 C 7.79 g/m*3 13.4 C 0 km/h
359 08-06-2011 23:45:04 13.4 C 7.79 g/m*3 13.4 C 0 km/h
360 08-06-2011 23:57:04 13.4 C 7.79 g/m*3 13.4 C 0 km/h
361 09-06-2011 00:09:04 13.4 C 7.79 g/m*3 13.4 C 0 km/h
362 09-06-2011 00:21:04 13.4 C 7.79 g/m*3 13.4 C 0 km/h
363 09-06-2011 00:33:04 13.4 C 7.79 g/m*3 13.4 C 0 km/h
364 09-06-2011 00:45:04 13.4 C 7.79 g/m*3 13.4 C 0 km/h
365 09-06-2011 00:57:05 13.4 C 7.79 g/m*3 13.4 C 0 km/h
366 09-06-2011 01:09:05 13.4 C 7.79 g/m*3 13.4 C 0 km/h
367 09-06-2011 01:21:05 11.7 C 7.64 g/m*3 11.7 C 0 km/h
368 09-06-2011 01:33:05 11.7 C 7.64 g/m*3 11.7 C 0 km/h
369 09-06-2011 01:45:05 11.7 C 7.64 g/m*3 11.7 C 0 km/h
370 09-06-2011 01:57:05 11.1 C 7.55 g/m*3 11.1 C 0 km/h
371 09-06-2011 02:09:05 11.1 C 7.55 g/m*3 11.1 C 0 km/h
372 09-06-2011 02:21:05 11.1 C 7.55 g/m*3 11.1 C 0 km/h
373 09-06-2011 02:33:05 11.1 C 7.55 g/m*3 11.1 C 0 km/h
374 09-06-2011 02:45:05 11.1 C 7.55 g/m*3 11.1 C 0 km/h
375 09-06-2011 02:57:05 11.1 C 7.55 g/m*3 11.1 C 0 km/h
Sensor: Nr:Datum:Temp:Abs-Feuchte:Windchill:Wind:
Aussen-T/F 376 09-06-2011 03:09:05 11.1 C 7.55 g/m*3 11.1 C 0 km/h
377 09-06-2011 03:21:05 11.1 C 7.55 g/m*3 11.1 C 0 km/h
378 09-06-2011 03:33:05 11.1 C 7.55 g/m*3 11.1 C 0 km/h
379 09-06-2011 03:45:05 11.1 C 7.55 g/m*3 11.1 C 0 km/h
380 09-06-2011 03:57:05 11.1 C 7.55 g/m*3 11.1 C 0 km/h
381 09-06-2011 04:09:05 11.1 C 7.55 g/m*3 11.1 C 0 km/h
382 09-06-2011 04:21:05 11.1 C 7.55 g/m*3 11.1 C 0 km/h
383 09-06-2011 04:33:05 11.1 C 7.55 g/m*3 11.1 C 0 km/h
384 09-06-2011 04:45:05 11.1 C 7.55 g/m*3 11.1 C 0 km/h
385 09-06-2011 04:57:06 11.1 C 7.55 g/m*3 11.1 C 0 km/h
386 09-06-2011 05:09:06 11.1 C 7.55 g/m*3 11.1 C 0 km/h
387 09-06-2011 05:21:06 11.1 C 7.55 g/m*3 11.1 C 0 km/h
388 09-06-2011 05:33:06 11.1 C 7.55 g/m*3 11.1 C 0 km/h
389 09-06-2011 05:45:06 11.1 C 7.55 g/m*3 11.1 C 0 km/h
390 09-06-2011 05:57:06 11.1 C 7.55 g/m*3 11.1 C 0 km/h
391 09-06-2011 06:09:06 11.1 C 7.55 g/m*3 11.1 C 0 km/h
392 09-06-2011 06:21:06 8.8 C 7.66 g/m*3 8.8 C 0 km/h
393 09-06-2011 06:33:06 8.7 C 7.61 g/m*3 8.7 C 0 km/h
394 09-06-2011 06:45:02 8.6 C 7.56 g/m*3 8.6 C 0 km/h
395 09-06-2011 06:57:02 8.8 C 7.66 g/m*3 8.8 C 0 km/h
396 09-06-2011 07:09:02 9.3 C 7.91 g/m*3 9.3 C 0 km/h
397 09-06-2011 07:21:02 9.5 C 8.01 g/m*3 9.5 C 0 km/h
398 09-06-2011 07:33:02 9.7 C 8.11 g/m*3 9.7 C 0 km/h
399 09-06-2011 07:45:02 9.7 C 8.11 g/m*3 9.7 C 0 km/h
400 09-06-2011 07:57:02 9.7 C 8.11 g/m*3 9.7 C 0 km/h
Sensor: Nr:Datum:Temp:Abs-Feuchte:Windchill:Wind:
Aussen-T/F 401 09-06-2011 08:09:01 9.7 C 8.11 g/m*3 9.7 C 0 km/h
402 09-06-2011 08:21:02 9.7 C 8.11 g/m*3 9.7 C 0 km/h
403 09-06-2011 08:33:02 9.7 C 8.11 g/m*3 9.7 C 0 km/h
404 09-06-2011 08:45:02 9.7 C 8.11 g/m*3 9.7 C 0 km/h
405 09-06-2011 08:57:02 9.7 C 8.11 g/m*3 9.7 C 0 km/h
406 09-06-2011 09:09:03 9.7 C 8.11 g/m*3 9.7 C 0 km/h
407 09-06-2011 09:21:02 9.7 C 8.11 g/m*3 9.7 C 0 km/h
408 09-06-2011 09:33:03 9.7 C 8.11 g/m*3 9.7 C 0 km/h
409 09-06-2011 09:45:02 9.7 C 8.11 g/m*3 9.7 C 0 km/h
410 09-06-2011 09:57:03 9.7 C 8.11 g/m*3 9.7 C 0 km/h
411 09-06-2011 10:09:01 9.7 C 8.11 g/m*3 9.7 C 0 km/h
412 09-06-2011 10:21:02 9.7 C 8.11 g/m*3 9.7 C 0 km/h
413 09-06-2011 10:33:02 9.7 C 8.11 g/m*3 9.7 C 0 km/h
414 09-06-2011 10:58:02 9.7 C 8.11 g/m*3 9.7 C 0 km/h
415 09-06-2011 11:10:03 9.7 C 8.11 g/m*3 9.7 C 0 km/h
416 09-06-2011 11:22:02 9.7 C 8.11 g/m*3 9.7 C 0 km/h
417 09-06-2011 11:34:02 9.7 C 8.11 g/m*3 9.7 C 0 km/h
418 09-06-2011 11:46:02 9.7 C 8.11 g/m*3 9.7 C 0 km/h
419 09-06-2011 11:58:02 18.6 C 6.37 g/m*3 18.6 C 0 km/h
420 09-06-2011 12:10:03 18.8 C 6.76 g/m*3 18.8 C 0 km/h
421 09-06-2011 12:22:03 18.3 C 6.1 g/m*3 18.3 C 0 km/h
422 09-06-2011 12:34:02 18.1 C 8.03 g/m*3 18.1 C 0 km/h
423 09-06-2011 12:46:02 20 C 6.91 g/m*3 20 C 0 km/h
424 09-06-2011 12:58:03 20.9 C 6.56 g/m*3 20.9 C 0 km/h
425 09-06-2011 13:10:01 20.9 C 6.19 g/m*3 20.9 C 0 km/h
Sensor: Nr:Datum:Temp:Abs-Feuchte:Windchill:Wind:
Aussen-T/F 426 09-06-2011 13:22:02 20.1 C 6.78 g/m*3 20.1 C 0 km/h
427 09-06-2011 13:34:02 20.1 C 6.61 g/m*3 20.1 C 0 km/h
428 09-06-2011 13:46:02 18.8 C 6.76 g/m*3 18.8 C 0 km/h
429 09-06-2011 13:58:02 17.1 C 7.57 g/m*3 17.1 C 0 km/h
430 09-06-2011 14:10:03 16.7 C 6.54 g/m*3 16.7 C 0 km/h
431 09-06-2011 14:22:02 16.2 C 7.58 g/m*3 16.2 C 0 km/h
432 09-06-2011 14:34:02 15.6 C 7.98 g/m*3 15.6 C 0 km/h
433 09-06-2011 14:46:01 15.5 C 8.06 g/m*3 15.5 C 0 km/h
434 09-06-2011 14:58:01 15.7 C 8.16 g/m*3 15.7 C 0 km/h
435 09-06-2011 15:10:02 16.2 C 8.14 g/m*3 16.2 C 0 km/h
436 09-06-2011 15:22:01 17 C 8.68 g/m*3 17 C 0 km/h
437 09-06-2011 15:34:01 17.3 C 8.25 g/m*3 17.3 C 0 km/h
438 09-06-2011 15:46:01 17.9 C 8.24 g/m*3 17.9 C 0 km/h
439 09-06-2011 15:58:01 18.2 C 8.39 g/m*3 18.2 C 0 km/h
440 09-06-2011 16:10:02 17.6 C 8.7 g/m*3 17.6 C 0 km/h
441 09-06-2011 16:22:01 17.2 C 8.35 g/m*3 17.2 C 0 km/h
442 09-06-2011 16:34:01 17.1 C 8.44 g/m*3 17.1 C 0 km/h
443 09-06-2011 16:46:01 16.8 C 9.01 g/m*3 16.8 C 0 km/h
444 09-06-2011 16:58:01 16.6 C 9.18 g/m*3 16.6 C 0 km/h
445 09-06-2011 17:10:01 16.5 C 8.99 g/m*3 16.5 C 0 km/h
446 09-06-2011 17:22:02 16.8 C 9.01 g/m*3 16.8 C 0 km/h
447 09-06-2011 17:34:01 16.8 C 9.01 g/m*3 16.8 C 0 km/h
448 09-06-2011 17:46:02 17.2 C 8.93 g/m*3 17.2 C 0 km/h
449 09-06-2011 17:58:02 17.8 C 8.8 g/m*3 17.8 C 0 km/h
450 09-06-2011 18:10:02 20.4 C 7.78 g/m*3 20.4 C 0 km/h
Sensor: Nr:Datum:Temp:Abs-Feuchte:Windchill:Wind:
Aussen-T/F 451 09-06-2011 18:22:02 21.3 C 6.9 g/m*3 21.3 C 0 km/h
452 09-06-2011 18:34:02 23.3 C 6.69 g/m*3 23.3 C 0 km/h
453 09-06-2011 18:46:02 22.2 C 5.5 g/m*3 22.2 C 0 km/h
454 09-06-2011 18:58:02 22.5 C 6.19 g/m*3 22.5 C 0 km/h
455 09-06-2011 19:10:01 22.3 C 7.5 g/m*3 22.3 C 0 km/h
456 09-06-2011 19:22:02 22.3 C 7.5 g/m*3 22.3 C 0 km/h
457 09-06-2011 19:34:02 22.3 C 7.5 g/m*3 22.3 C 0 km/h
458 09-06-2011 19:46:02 22.3 C 7.5 g/m*3 22.3 C 0 km/h
459 09-06-2011 19:58:02 22.3 C 7.5 g/m*3 22.3 C 0 km/h
460 09-06-2011 20:10:02 22.3 C 7.5 g/m*3 22.3 C 0 km/h
461 09-06-2011 20:22:02 22.3 C 7.5 g/m*3 22.3 C 0 km/h
462 09-06-2011 20:34:02 22.3 C 7.5 g/m*3 22.3 C 0 km/h
463 09-06-2011 20:46:02 22.3 C 7.5 g/m*3 22.3 C 0 km/h
464 09-06-2011 20:58:02 22.3 C 7.5 g/m*3 22.3 C 0 km/h
465 09-06-2011 21:10:02 13 C 9.3 g/m*3 13 C 0 km/h
466 09-06-2011 21:22:01 12.9 C 9.47 g/m*3 12.9 C 0 km/h
467 09-06-2011 21:34:02 12.9 C 9.58 g/m*3 12.9 C 0 km/h
468 09-06-2011 21:46:02 12.5 C 9.46 g/m*3 12.5 C 0 km/h
469 09-06-2011 21:58:02 12.4 C 9.4 g/m*3 12.4 C 0 km/h
470 09-06-2011 22:10:02 12.4 C 9.4 g/m*3 12.4 C 0 km/h
471 09-06-2011 22:22:01 11.5 C 8.99 g/m*3 11.5 C 0 km/h
472 09-06-2011 22:35:03 11.5 C 8.99 g/m*3 11.5 C 0 km/h
473 09-06-2011 22:47:03 11.4 C 8.93 g/m*3 11.4 C 0 km/h
474 09-06-2011 22:59:03 11.4 C 8.93 g/m*3 11.4 C 0 km/h
475 09-06-2011 23:11:03 11.4 C 8.93 g/m*3 11.4 C 0 km/h
Sensor: Nr:Datum:Temp:Abs-Feuchte:Windchill:Wind:
Aussen-T/F 476 09-06-2011 23:23:03 11.4 C 8.93 g/m*3 11.4 C 0 km/h
477 09-06-2011 23:35:03 11.4 C 8.93 g/m*3 11.4 C 0 km/h
478 09-06-2011 23:47:03 11.4 C 8.93 g/m*3 11.4 C 0 km/h
479 09-06-2011 23:59:03 11.4 C 8.93 g/m*3 11.4 C 0 km/h
480 10-06-2011 00:11:03 11.4 C 8.93 g/m*3 11.4 C 0 km/h
481 10-06-2011 00:23:03 11.4 C 8.93 g/m*3 11.4 C 0 km/h
482 10-06-2011 00:35:03 11.4 C 8.93 g/m*3 11.4 C 0 km/h
483 10-06-2011 00:47:04 11.4 C 8.93 g/m*3 11.4 C 0 km/h
484 10-06-2011 00:59:04 11.4 C 8.93 g/m*3 11.4 C 0 km/h
485 10-06-2011 01:11:04 11.4 C 8.93 g/m*3 11.4 C 0 km/h
486 10-06-2011 01:23:04 11.4 C 8.93 g/m*3 11.4 C 0 km/h
487 10-06-2011 01:35:04 11.4 C 8.93 g/m*3 11.4 C 0 km/h
488 10-06-2011 01:47:04 11.4 C 8.93 g/m*3 11.4 C 0 km/h
489 10-06-2011 01:59:04 11.4 C 8.93 g/m*3 11.4 C 0 km/h
490 10-06-2011 02:11:04 11.4 C 8.93 g/m*3 11.4 C 0 km/h
491 10-06-2011 02:23:04 11.4 C 8.93 g/m*3 11.4 C 0 km/h
492 10-06-2011 02:35:04 11.4 C 8.93 g/m*3 11.4 C 0 km/h
493 10-06-2011 02:47:04 11.4 C 8.93 g/m*3 11.4 C 0 km/h
494 10-06-2011 02:59:04 11.4 C 8.93 g/m*3 11.4 C 0 km/h
495 10-06-2011 03:11:04 11.4 C 8.93 g/m*3 11.4 C 0 km/h
496 10-06-2011 03:23:04 11.4 C 8.93 g/m*3 11.4 C 0 km/h
497 10-06-2011 03:35:04 11.4 C 8.93 g/m*3 11.4 C 0 km/h
498 10-06-2011 03:47:04 11.4 C 8.93 g/m*3 11.4 C 0 km/h
499 10-06-2011 03:59:04 11.4 C 8.93 g/m*3 11.4 C 0 km/h
500 10-06-2011 04:11:04 11.4 C 8.93 g/m*3 11.4 C 0 km/h
Sensor: Nr:Datum:Temp:Abs-Feuchte:Windchill:Wind:
Aussen-T/F 501 10-06-2011 04:23:04 11.4 C 8.93 g/m*3 11.4 C 0 km/h
502 10-06-2011 04:35:04 11.4 C 8.93 g/m*3 11.4 C 0 km/h
503 10-06-2011 04:47:04 11.4 C 8.93 g/m*3 11.4 C 0 km/h
504 10-06-2011 04:59:05 11.4 C 8.93 g/m*3 11.4 C 0 km/h
505 10-06-2011 05:11:05 11.4 C 8.93 g/m*3 11.4 C 0 km/h
506 10-06-2011 05:23:05 11.4 C 8.93 g/m*3 11.4 C 0 km/h
507 10-06-2011 05:35:05 11.4 C 8.93 g/m*3 11.4 C 0 km/h
508 10-06-2011 05:47:05 11.4 C 8.93 g/m*3 11.4 C 0 km/h
509 10-06-2011 05:59:05 11.4 C 8.93 g/m*3 11.4 C 0 km/h
510 10-06-2011 06:11:05 11.4 C 8.93 g/m*3 11.4 C 0 km/h
511 10-06-2011 06:23:05 11.4 C 8.93 g/m*3 11.4 C 0 km/h
512 10-06-2011 06:35:03 11.5 C 9.09 g/m*3 11.5 C 0 km/h
513 10-06-2011 06:47:02 11.8 C 9.26 g/m*3 11.8 C 0 km/h
514 10-06-2011 06:59:02 12 C 9.27 g/m*3 12 C 0 km/h
515 10-06-2011 07:11:03 12.1 C 9.33 g/m*3 12.1 C 0 km/h
516 10-06-2011 07:23:02 12.5 C 9.46 g/m*3 12.5 C 0 km/h
517 10-06-2011 07:35:02 12.5 C 9.46 g/m*3 12.5 C 0 km/h
518 10-06-2011 07:47:01 13 C 9.07 g/m*3 13 C 0 km/h
519 10-06-2011 07:59:01 13 C 9.07 g/m*3 13 C 0 km/h
520 10-06-2011 08:11:02 13 C 9.07 g/m*3 13 C 0 km/h
521 10-06-2011 08:23:01 13 C 9.07 g/m*3 13 C 0 km/h
522 10-06-2011 08:35:02 13 C 9.07 g/m*3 13 C 0 km/h
523 10-06-2011 08:47:02 13 C 9.07 g/m*3 13 C 0 km/h
524 10-06-2011 08:59:02 13 C 9.07 g/m*3 13 C 0 km/h
525 10-06-2011 09:11:02 13 C 9.07 g/m*3 13 C 0 km/h
Sensor: Nr:Datum:Temp:Abs-Feuchte:Windchill:Wind:
Aussen-T/F 526 10-06-2011 09:23:01 13 C 9.07 g/m*3 13 C 0 km/h
527 10-06-2011 09:35:02 13 C 9.07 g/m*3 13 C 0 km/h
528 10-06-2011 09:47:02 13 C 9.07 g/m*3 13 C 0 km/h
529 10-06-2011 09:59:02 13 C 9.07 g/m*3 13 C 0 km/h
530 10-06-2011 10:11:02 13 C 9.07 g/m*3 13 C 0 km/h
531 10-06-2011 10:23:01 13 C 9.07 g/m*3 13 C 0 km/h
532 10-06-2011 10:35:02 13 C 9.07 g/m*3 13 C 0 km/h
533 10-06-2011 10:47:01 13 C 9.07 g/m*3 13 C 0 km/h
534 10-06-2011 10:59:01 13 C 9.07 g/m*3 13 C 0 km/h
535 10-06-2011 11:11:02 13 C 9.07 g/m*3 13 C 0 km/h
536 10-06-2011 11:23:02 13 C 9.07 g/m*3 13 C 0 km/h
537 10-06-2011 11:35:02 13 C 9.07 g/m*3 13 C 0 km/h
538 10-06-2011 11:47:01 13 C 9.07 g/m*3 13 C 0 km/h
539 10-06-2011 11:59:01 13 C 9.07 g/m*3 13 C 0 km/h
540 10-06-2011 12:11:02 13 C 9.07 g/m*3 13 C 0 km/h
541 10-06-2011 12:23:02 13 C 9.07 g/m*3 13 C 0 km/h
542 10-06-2011 12:35:01 13 C 9.07 g/m*3 13 C 0 km/h
543 10-06-2011 12:47:02 13 C 9.07 g/m*3 13 C 0 km/h
544 10-06-2011 12:59:02 13 C 9.07 g/m*3 13 C 0 km/h
545 10-06-2011 13:11:01 13 C 9.07 g/m*3 13 C 0 km/h
546 10-06-2011 13:23:02 13 C 9.07 g/m*3 13 C 0 km/h
547 10-06-2011 13:35:01 13 C 9.07 g/m*3 13 C 0 km/h
548 10-06-2011 13:47:02 13 C 9.07 g/m*3 13 C 0 km/h
549 10-06-2011 13:59:02 13 C 9.07 g/m*3 13 C 0 km/h
550 10-06-2011 14:11:01 13 C 9.07 g/m*3 13 C 0 km/h
Sensor: Nr:Datum:Temp:Abs-Feuchte:Windchill:Wind:
Aussen-T/F 551 10-06-2011 14:23:01 13 C 9.07 g/m*3 13 C 0 km/h
552 10-06-2011 14:35:01 13 C 9.07 g/m*3 13 C 0 km/h
553 10-06-2011 14:47:02 13 C 9.07 g/m*3 13 C 0 km/h
554 10-06-2011 14:59:02 13 C 9.07 g/m*3 13 C 0 km/h
555 10-06-2011 15:11:02 13 C 9.07 g/m*3 13 C 0 km/h
556 10-06-2011 15:23:02 21.5 C 6.03 g/m*3 21.5 C 0 km/h
557 10-06-2011 15:35:02 21.7 C 5.91 g/m*3 21.7 C 0 km/h
558 10-06-2011 15:47:02 22 C 5.43 g/m*3 22 C 0 km/h
559 10-06-2011 15:59:02 24.1 C 5.69 g/m*3 24.1 C 0 km/h
560 10-06-2011 16:11:02 26.7 C 5.06 g/m*3 26.7 C 0 km/h
561 10-06-2011 16:23:02 27 C 5.15 g/m*3 27 C 0 km/h
562 10-06-2011 16:35:01 24 C 4.35 g/m*3 24 C 0 km/h
563 10-06-2011 16:47:03 27.6 C 5.32 g/m*3 27.6 C 0 km/h
564 10-06-2011 16:59:03 26.3 C 4.95 g/m*3 26.3 C 0 km/h
565 10-06-2011 17:11:03 23.3 C 4.39 g/m*3 23.3 C 0 km/h
566 10-06-2011 17:23:02 22.5 C 4.79 g/m*3 22.5 C 0 km/h
567 10-06-2011 17:35:02 22.5 C 4.79 g/m*3 22.5 C 0 km/h
568 10-06-2011 17:47:02 20.6 C 6.62 g/m*3 20.6 C 0 km/h
569 10-06-2011 17:59:02 19.3 C 7.63 g/m*3 19.3 C 0 km/h
570 10-06-2011 18:11:01 18.8 C 7.57 g/m*3 18.8 C 0 km/h
571 10-06-2011 18:23:01 18.1 C 6.18 g/m*3 18.1 C 0 km/h
572 10-06-2011 18:35:02 18.2 C 6.53 g/m*3 18.2 C 0 km/h
573 10-06-2011 18:47:02 18.2 C 6.53 g/m*3 18.2 C 0 km/h
574 10-06-2011 18:59:02 18.2 C 6.53 g/m*3 18.2 C 0 km/h
575 10-06-2011 19:11:02 18.2 C 6.53 g/m*3 18.2 C 0 km/h
Sensor: Nr:Datum:Temp:Abs-Feuchte:Windchill:Wind:
Aussen-T/F 576 10-06-2011 19:23:02 18.2 C 7.77 g/m*3 18.2 C 0 km/h
577 10-06-2011 19:35:02 18.2 C 7.77 g/m*3 18.2 C 0 km/h
578 10-06-2011 19:47:02 18.2 C 7.77 g/m*3 18.2 C 0 km/h
579 10-06-2011 19:59:02 18.2 C 7.77 g/m*3 18.2 C 0 km/h
580 10-06-2011 20:11:02 18.2 C 7.77 g/m*3 18.2 C 0 km/h
581 10-06-2011 20:23:02 18.2 C 7.77 g/m*3 18.2 C 0 km/h
582 10-06-2011 20:35:02 18.2 C 7.77 g/m*3 18.2 C 0 km/h
583 10-06-2011 20:47:01 18.2 C 7.77 g/m*3 18.2 C 0 km/h
584 10-06-2011 20:59:01 18.2 C 7.77 g/m*3 18.2 C 0 km/h
585 10-06-2011 21:11:01 18.2 C 7.77 g/m*3 18.2 C 0 km/h
586 10-06-2011 21:23:01 18.2 C 7.77 g/m*3 18.2 C 0 km/h
587 10-06-2011 21:35:01 14.3 C 8.72 g/m*3 14.3 C 0 km/h
588 10-06-2011 21:47:01 14.3 C 8.72 g/m*3 14.3 C 0 km/h
589 10-06-2011 21:59:01 14.3 C 8.72 g/m*3 14.3 C 0 km/h
590 10-06-2011 22:11:02 14.4 C 8.9 g/m*3 14.4 C 0 km/h
591 10-06-2011 22:24:03 14.4 C 8.9 g/m*3 14.4 C 0 km/h
592 10-06-2011 22:36:03 14.4 C 8.9 g/m*3 14.4 C 0 km/h
593 10-06-2011 22:48:03 14.4 C 8.9 g/m*3 14.4 C 0 km/h
594 10-06-2011 23:00:03 14.4 C 8.9 g/m*3 14.4 C 0 km/h
595 10-06-2011 23:12:03 14.4 C 8.9 g/m*3 14.4 C 0 km/h
596 10-06-2011 23:24:03 14.4 C 8.9 g/m*3 14.4 C 0 km/h
597 10-06-2011 23:36:03 15.1 C 7.87 g/m*3 15.1 C 0 km/h
598 10-06-2011 23:48:03 15.1 C 7.87 g/m*3 15.1 C 0 km/h
599 11-06-2011 00:00:03 15.1 C 7.87 g/m*3 15.1 C 0 km/h
600 11-06-2011 00:12:03 12.6 C 9.07 g/m*3 12.6 C 0 km/h
Sensor: Nr:Datum:Temp:Abs-Feuchte:Windchill:Wind:
Aussen-T/F 601 11-06-2011 00:24:03 12.6 C 9.07 g/m*3 12.6 C 0 km/h
602 11-06-2011 00:36:03 12.6 C 9.07 g/m*3 12.6 C 0 km/h
603 11-06-2011 00:48:03 12.6 C 9.07 g/m*3 12.6 C 0 km/h
604 11-06-2011 01:00:03 12.6 C 9.07 g/m*3 12.6 C 0 km/h
605 11-06-2011 01:12:03 12.6 C 9.07 g/m*3 12.6 C 0 km/h
606 11-06-2011 01:24:03 12.6 C 9.07 g/m*3 12.6 C 0 km/h
607 11-06-2011 01:36:04 12.6 C 9.07 g/m*3 12.6 C 0 km/h
608 11-06-2011 01:48:04 12.6 C 9.07 g/m*3 12.6 C 0 km/h
609 11-06-2011 02:00:04 12.6 C 9.07 g/m*3 12.6 C 0 km/h
610 11-06-2011 02:12:04 12.6 C 9.07 g/m*3 12.6 C 0 km/h
611 11-06-2011 02:24:04 12.6 C 9.07 g/m*3 12.6 C 0 km/h
612 11-06-2011 02:36:04 12.6 C 9.07 g/m*3 12.6 C 0 km/h
613 11-06-2011 02:48:04 12.6 C 9.07 g/m*3 12.6 C 0 km/h
614 11-06-2011 03:00:04 12.6 C 9.07 g/m*3 12.6 C 0 km/h
615 11-06-2011 03:12:04 12.6 C 9.07 g/m*3 12.6 C 0 km/h
616 11-06-2011 03:24:04 12.6 C 9.07 g/m*3 12.6 C 0 km/h
617 11-06-2011 03:36:04 12.6 C 9.07 g/m*3 12.6 C 0 km/h
618 11-06-2011 03:48:04 12.6 C 9.07 g/m*3 12.6 C 0 km/h
619 11-06-2011 04:00:04 12.6 C 9.07 g/m*3 12.6 C 0 km/h
620 11-06-2011 04:12:04 12.6 C 9.07 g/m*3 12.6 C 0 km/h
621 11-06-2011 04:24:04 12.6 C 9.07 g/m*3 12.6 C 0 km/h
622 11-06-2011 04:36:04 12.6 C 9.07 g/m*3 12.6 C 0 km/h
623 11-06-2011 04:48:04 12.6 C 9.07 g/m*3 12.6 C 0 km/h
624 11-06-2011 05:00:04 12.6 C 9.07 g/m*3 12.6 C 0 km/h
625 11-06-2011 05:12:04 12.6 C 9.07 g/m*3 12.6 C 0 km/h
Sensor: Nr:Datum:Temp:Abs-Feuchte:Windchill:Wind:
Aussen-T/F 626 11-06-2011 05:24:04 12.6 C 9.07 g/m*3 12.6 C 0 km/h
627 11-06-2011 05:36:04 12.6 C 9.07 g/m*3 12.6 C 0 km/h
628 11-06-2011 05:48:05 12.6 C 9.07 g/m*3 12.6 C 0 km/h
629 11-06-2011 06:00:05 12.6 C 9.07 g/m*3 12.6 C 0 km/h
630 11-06-2011 06:12:05 12.6 C 9.07 g/m*3 12.6 C 0 km/h
631 11-06-2011 06:24:05 12.6 C 9.07 g/m*3 12.6 C 0 km/h
632 11-06-2011 06:36:05 12.6 C 9.07 g/m*3 12.6 C 0 km/h
633 11-06-2011 06:48:05 12.6 C 9.07 g/m*3 12.6 C 0 km/h
634 11-06-2011 07:00:05 12.6 C 9.07 g/m*3 12.6 C 0 km/h
635 11-06-2011 07:12:05 12.6 C 9.07 g/m*3 12.6 C 0 km/h
636 11-06-2011 07:24:05 10 C 8.36 g/m*3 10 C 0 km/h
637 11-06-2011 07:36:05 10.5 C 8.73 g/m*3 10.5 C 0 km/h
638 11-06-2011 07:48:02 11.2 C 9.02 g/m*3 11.2 C 0 km/h
639 11-06-2011 08:00:02 10.8 C 8.8 g/m*3 10.8 C 0 km/h
640 11-06-2011 08:12:02 10.8 C 8.8 g/m*3 10.8 C 0 km/h
641 11-06-2011 08:24:02 12.2 C 9.39 g/m*3 12.2 C 0 km/h
642 11-06-2011 08:36:01 11.9 C 8.9 g/m*3 11.9 C 0 km/h
643 11-06-2011 08:48:02 11.9 C 8.9 g/m*3 11.9 C 0 km/h
644 11-06-2011 09:00:02 11.9 C 8.9 g/m*3 11.9 C 0 km/h
645 11-06-2011 09:12:01 11.9 C 8.9 g/m*3 11.9 C 0 km/h
646 11-06-2011 09:24:02 13.4 C 7.32 g/m*3 13.4 C 0 km/h
647 11-06-2011 09:36:01 13.1 C 6.96 g/m*3 13.1 C 0 km/h
648 11-06-2011 09:48:03 13.5 C 7.49 g/m*3 13.5 C 0 km/h
649 11-06-2011 10:00:03 13.6 C 7.3 g/m*3 13.6 C 0 km/h
650 11-06-2011 10:12:02 13.6 C 7.3 g/m*3 13.6 C 0 km/h
Sensor: Nr:Datum:Temp:Abs-Feuchte:Windchill:Wind:
Aussen-T/F 651 11-06-2011 10:24:02 13.6 C 7.3 g/m*3 13.6 C 0 km/h
652 11-06-2011 10:36:02 13.6 C 7.3 g/m*3 13.6 C 0 km/h
653 11-06-2011 10:48:02 13.6 C 7.3 g/m*3 13.6 C 0 km/h
654 11-06-2011 11:00:02 13.6 C 7.3 g/m*3 13.6 C 0 km/h
655 11-06-2011 11:12:01 13.6 C 7.3 g/m*3 13.6 C 0 km/h
656 11-06-2011 11:24:02 13.6 C 7.3 g/m*3 13.6 C 0 km/h
657 11-06-2011 11:36:02 13.6 C 7.3 g/m*3 13.6 C 0 km/h
658 11-06-2011 11:48:01 13.6 C 7.3 g/m*3 13.6 C 0 km/h
659 11-06-2011 12:00:01 13.6 C 7.3 g/m*3 13.6 C 0 km/h
660 11-06-2011 12:12:01 13.6 C 7.3 g/m*3 13.6 C 0 km/h
661 11-06-2011 12:24:01 13.6 C 7.3 g/m*3 13.6 C 0 km/h
662 11-06-2011 12:36:02 13.6 C 7.3 g/m*3 13.6 C 0 km/h
663 11-06-2011 12:48:02 13.6 C 7.3 g/m*3 13.6 C 0 km/h
664 11-06-2011 13:00:02 17.8 C 5.01 g/m*3 17.8 C 0 km/h
665 11-06-2011 13:12:02 17.8 C 4.71 g/m*3 17.8 C 0 km/h
666 11-06-2011 13:24:01 21.4 C 5.44 g/m*3 21.4 C 0 km/h
667 11-06-2011 13:36:02 22.7 C 4.24 g/m*3 22.7 C 0 km/h
668 11-06-2011 13:48:02 20.2 C 4.9 g/m*3 20.2 C 0 km/h
669 11-06-2011 14:00:02 20.3 C 5.28 g/m*3 20.3 C 0 km/h
670 11-06-2011 14:12:02 23.7 C 5.13 g/m*3 23.7 C 0 km/h
671 11-06-2011 14:24:01 20.8 C 4.89 g/m*3 20.8 C 0 km/h
672 11-06-2011 14:36:02 19.8 C 4.95 g/m*3 19.8 C 0 km/h
673 11-06-2011 14:48:02 21.7 C 4.77 g/m*3 21.7 C 0 km/h
674 11-06-2011 15:00:02 25.9 C 4.84 g/m*3 25.9 C 0 km/h
675 11-06-2011 15:12:02 27.5 C 5.29 g/m*3 27.5 C 0 km/h
Sensor: Nr:Datum:Temp:Abs-Feuchte:Windchill:Wind:
Aussen-T/F 676 11-06-2011 15:24:02 27.6 C 5.32 g/m*3 27.6 C 0 km/h
677 11-06-2011 15:36:02 22.5 C 3.99 g/m*3 22.5 C 0 km/h
678 11-06-2011 15:48:02 27.4 C 5.26 g/m*3 27.4 C 0 km/h
679 11-06-2011 16:00:02 26.3 C 4.95 g/m*3 26.3 C 0 km/h
680 11-06-2011 16:12:02 22.7 C 4.04 g/m*3 22.7 C 0 km/h
681 11-06-2011 16:24:02 25.5 C 4.73 g/m*3 25.5 C 0 km/h
682 11-06-2011 16:36:01 25.5 C 4.73 g/m*3 25.5 C 0 km/h
683 11-06-2011 16:48:02 25.5 C 4.73 g/m*3 25.5 C 0 km/h
684 11-06-2011 17:00:02 25.5 C 4.73 g/m*3 25.5 C 0 km/h
685 11-06-2011 17:12:01 25.5 C 4.73 g/m*3 25.5 C 0 km/h
686 11-06-2011 17:24:01 25.5 C 4.73 g/m*3 25.5 C 0 km/h
687 11-06-2011 17:36:01 25.5 C 4.73 g/m*3 25.5 C 0 km/h
688 11-06-2011 17:48:02 25.5 C 4.73 g/m*3 25.5 C 0 km/h
689 11-06-2011 18:00:03 25.5 C 4.73 g/m*3 25.5 C 0 km/h
690 11-06-2011 18:12:02 25.5 C 4.73 g/m*3 25.5 C 0 km/h
691 11-06-2011 18:24:02 25.5 C 4.73 g/m*3 25.5 C 0 km/h
692 11-06-2011 18:36:02 23.6 C 4.89 g/m*3 23.6 C 0 km/h
693 11-06-2011 18:48:01 23.6 C 4.89 g/m*3 23.6 C 0 km/h
694 11-06-2011 19:00:01 22.1 C 5.27 g/m*3 22.1 C 0 km/h
695 11-06-2011 19:12:02 18.9 C 5.51 g/m*3 18.9 C 0 km/h
696 11-06-2011 19:24:01 18.9 C 5.51 g/m*3 18.9 C 0 km/h
697 11-06-2011 19:36:02 18 C 7.22 g/m*3 18 C 0 km/h
698 11-06-2011 19:48:01 17.6 C 7.8 g/m*3 17.6 C 0 km/h
699 11-06-2011 20:00:01 16.8 C 7.72 g/m*3 16.8 C 0 km/h
700 11-06-2011 20:12:02 16.6 C 7.63 g/m*3 16.6 C 0 km/h
Sensor: Nr:Datum:Temp:Abs-Feuchte:Windchill:Wind:
Aussen-T/F 701 11-06-2011 20:24:01 16.2 C 7.86 g/m*3 16.2 C 0 km/h
702 11-06-2011 20:36:02 15.7 C 8.16 g/m*3 15.7 C 0 km/h
703 11-06-2011 20:48:01 15.4 C 7.88 g/m*3 15.4 C 0 km/h
704 11-06-2011 21:00:01 15 C 7.82 g/m*3 15 C 0 km/h
705 11-06-2011 21:12:02 15.8 C 6.6 g/m*3 15.8 C 0 km/h
706 11-06-2011 21:24:01 15.7 C 6.69 g/m*3 15.7 C 0 km/h
707 11-06-2011 21:36:01 15.2 C 6.88 g/m*3 15.2 C 0 km/h
708 11-06-2011 21:48:01 14.9 C 6.88 g/m*3 14.9 C 0 km/h
709 11-06-2011 22:00:01 14.5 C 6.84 g/m*3 14.5 C 0 km/h
710 11-06-2011 22:12:02 14.1 C 7.28 g/m*3 14.1 C 0 km/h
711 11-06-2011 22:24:02 13.6 C 7.41 g/m*3 13.6 C 0 km/h
712 11-06-2011 22:36:01 12.8 C 7.39 g/m*3 12.8 C 0 km/h
713 11-06-2011 22:49:03 12.4 C 7.54 g/m*3 12.4 C 0 km/h
714 11-06-2011 23:01:03 12.4 C 7.43 g/m*3 12.4 C 0 km/h
715 11-06-2011 23:13:03 12.2 C 7.34 g/m*3 12.2 C 0 km/h
716 11-06-2011 23:25:03 12.1 C 7.4 g/m*3 12.1 C 0 km/h
717 11-06-2011 23:37:04 11.7 C 7.64 g/m*3 11.7 C 0 km/h
718 11-06-2011 23:49:04 11.1 C 7.45 g/m*3 11.1 C 0 km/h
719 12-06-2011 00:01:04 10.9 C 7.56 g/m*3 10.9 C 0 km/h
720 12-06-2011 00:13:04 10.8 C 7.61 g/m*3 10.8 C 0 km/h
721 12-06-2011 00:25:04 10.2 C 7.42 g/m*3 10.2 C 0 km/h
722 12-06-2011 00:37:04 9.7 C 7.38 g/m*3 9.7 C 0 km/h
723 12-06-2011 00:49:04 9.7 C 7.56 g/m*3 9.7 C 0 km/h
724 12-06-2011 01:01:04 9.4 C 7.42 g/m*3 9.4 C 0 km/h
725 12-06-2011 01:13:04 9.6 C 7.6 g/m*3 9.6 C 0 km/h
Sensor: Nr:Datum:Temp:Abs-Feuchte:Windchill:Wind:
Aussen-T/F 726 12-06-2011 01:25:04 9.3 C 7.55 g/m*3 9.3 C 0 km/h
727 12-06-2011 01:37:04 9.4 C 7.69 g/m*3 9.4 C 0 km/h
728 12-06-2011 01:49:04 9.1 C 7.54 g/m*3 9.1 C 0 km/h
729 12-06-2011 02:01:04 8.7 C 7.44 g/m*3 8.7 C 0 km/h
730 12-06-2011 02:13:04 8.4 C 7.3 g/m*3 8.4 C 0 km/h
731 12-06-2011 02:25:04 8.8 C 7.57 g/m*3 8.8 C 0 km/h
732 12-06-2011 02:37:04 8.7 C 7.52 g/m*3 8.7 C 0 km/h
733 12-06-2011 02:49:04 8.3 C 7.33 g/m*3 8.3 C 0 km/h
734 12-06-2011 03:01:04 8 C 7.19 g/m*3 8 C 0 km/h
735 12-06-2011 03:13:04 8.5 C 7.51 g/m*3 8.5 C 0 km/h
736 12-06-2011 03:25:04 8.2 C 7.37 g/m*3 8.2 C 0 km/h
737 12-06-2011 03:37:04 7.6 C 7.09 g/m*3 7.6 C 0 km/h
738 12-06-2011 03:49:05 7.8 C 7.26 g/m*3 7.8 C 0 km/h
739 12-06-2011 04:01:05 7.9 C 7.31 g/m*3 7.9 C 0 km/h
740 12-06-2011 04:13:05 7.9 C 7.39 g/m*3 7.9 C 0 km/h
741 12-06-2011 04:25:05 7.6 C 7.25 g/m*3 7.6 C 0 km/h
742 12-06-2011 04:37:05 7.3 C 7.11 g/m*3 7.3 C 0 km/h
743 12-06-2011 04:49:05 6.9 C 7.01 g/m*3 6.9 C 0 km/h
744 12-06-2011 05:01:05 7.2 C 7.06 g/m*3 7.2 C 0 km/h
745 12-06-2011 05:13:05 6.9 C 7.01 g/m*3 6.9 C 0 km/h
746 12-06-2011 05:25:05 6.7 C 6.91 g/m*3 6.7 C 0 km/h
747 12-06-2011 05:37:05 7 C 6.97 g/m*3 7 C 0 km/h
748 12-06-2011 05:49:05 6.7 C 6.91 g/m*3 6.7 C 0 km/h
749 12-06-2011 06:01:05 7 C 6.97 g/m*3 7 C 0 km/h
750 12-06-2011 06:13:05 7 C 6.97 g/m*3 7 C 0 km/h
Sensor: Nr:Datum:Temp:Abs-Feuchte:Windchill:Wind:
Aussen-T/F 751 12-06-2011 06:25:05 7 C 6.97 g/m*3 7 C 0 km/h
752 12-06-2011 06:37:05 7.5 C 7.28 g/m*3 7.5 C 0 km/h
753 12-06-2011 06:49:05 7.5 C 7.28 g/m*3 7.5 C 0 km/h
754 12-06-2011 07:01:04 8.1 C 7.49 g/m*3 8.1 C 0 km/h
755 12-06-2011 07:13:04 8.7 C 7.78 g/m*3 8.7 C 0 km/h
756 12-06-2011 07:25:03 8.8 C 7.75 g/m*3 8.8 C 0 km/h
757 12-06-2011 07:37:03 9.2 C 7.86 g/m*3 9.2 C 0 km/h
758 12-06-2011 07:49:02 9.7 C 8.11 g/m*3 9.7 C 0 km/h
759 12-06-2011 08:01:02 10.6 C 8.49 g/m*3 10.6 C 0 km/h
760 12-06-2011 08:13:02 11.6 C 8.52 g/m*3 11.6 C 0 km/h
761 12-06-2011 08:25:01 12.1 C 7.83 g/m*3 12.1 C 0 km/h
762 12-06-2011 08:37:02 12.5 C 7.92 g/m*3 12.5 C 0 km/h
763 12-06-2011 08:49:01 12.6 C 7.74 g/m*3 12.6 C 0 km/h
764 12-06-2011 09:01:02 13.1 C 7.76 g/m*3 13.1 C 0 km/h
765 12-06-2011 09:13:02 13.3 C 7.16 g/m*3 13.3 C 0 km/h
766 12-06-2011 09:25:01 13.7 C 7.22 g/m*3 13.7 C 0 km/h
767 12-06-2011 09:37:02 13.9 C 7.43 g/m*3 13.9 C 0 km/h
768 12-06-2011 09:49:01 14.4 C 7.29 g/m*3 14.4 C 0 km/h
769 12-06-2011 10:01:02 15.5 C 7.53 g/m*3 15.5 C 0 km/h
770 12-06-2011 10:13:02 16.5 C 7.3 g/m*3 16.5 C 0 km/h
771 12-06-2011 10:25:02 16.2 C 7.03 g/m*3 16.2 C 0 km/h
772 12-06-2011 10:37:01 16 C 6.81 g/m*3 16 C 0 km/h
773 12-06-2011 10:49:02 16.5 C 7.02 g/m*3 16.5 C 0 km/h
774 12-06-2011 11:01:01 17 C 6.66 g/m*3 17 C 0 km/h
775 12-06-2011 11:13:01 17.5 C 6.71 g/m*3 17.5 C 0 km/h
Sensor: Nr:Datum:Temp:Abs-Feuchte:Windchill:Wind:
Aussen-T/F 776 12-06-2011 11:25:02 16.4 C 7.68 g/m*3 16.4 C 0 km/h
777 12-06-2011 11:37:01 18.3 C 5.63 g/m*3 18.3 C 0 km/h
778 12-06-2011 11:49:02 18.3 C 5.47 g/m*3 18.3 C 0 km/h
779 12-06-2011 12:01:02 17.7 C 5.58 g/m*3 17.7 C 0 km/h
780 12-06-2011 12:13:02 18.3 C 5.94 g/m*3 18.3 C 0 km/h
781 12-06-2011 12:25:02 17.7 C 6.04 g/m*3 17.7 C 0 km/h
782 12-06-2011 12:37:02 18.1 C 6.49 g/m*3 18.1 C 0 km/h
783 12-06-2011 12:49:01 18.9 C 5.99 g/m*3 18.9 C 0 km/h
784 12-06-2011 13:01:02 18.8 C 5.8 g/m*3 18.8 C 0 km/h
785 12-06-2011 13:13:02 19.6 C 5.91 g/m*3 19.6 C 0 km/h
786 12-06-2011 13:25:01 21.9 C 5.79 g/m*3 21.9 C 0 km/h
787 12-06-2011 13:37:02 24.6 C 4.5 g/m*3 24.6 C 0 km/h
788 12-06-2011 13:49:02 25.1 C 4.63 g/m*3 25.1 C 0 km/h
789 12-06-2011 14:01:02 23.6 C 4.68 g/m*3 23.6 C 0 km/h
790 12-06-2011 14:13:02 26.1 C 4.9 g/m*3 26.1 C 0 km/h
791 12-06-2011 14:25:01 26.1 C 4.9 g/m*3 26.1 C 0 km/h
792 12-06-2011 14:37:02 26.4 C 4.98 g/m*3 26.4 C 0 km/h
793 12-06-2011 14:49:01 25.9 C 4.84 g/m*3 25.9 C 0 km/h
794 12-06-2011 15:01:02 23.4 C 4.21 g/m*3 23.4 C 0 km/h
795 12-06-2011 15:13:02 22.5 C 3.99 g/m*3 22.5 C 0 km/h
796 12-06-2011 15:25:01 23.3 C 4.18 g/m*3 23.3 C 0 km/h
797 12-06-2011 15:37:02 23.7 C 4.28 g/m*3 23.7 C 0 km/h
798 12-06-2011 15:49:01 22.7 C 4.04 g/m*3 22.7 C 0 km/h
799 12-06-2011 16:01:02 22.8 C 4.27 g/m*3 22.8 C 0 km/h
800 12-06-2011 16:13:02 24.7 C 4.53 g/m*3 24.7 C 0 km/h
Sensor: Nr:Datum:Temp:Abs-Feuchte:Windchill:Wind:
Aussen-T/F 801 12-06-2011 16:25:02 25.8 C 4.82 g/m*3 25.8 C 0 km/h
802 12-06-2011 16:37:01 23 C 4.11 g/m*3 23 C 0 km/h
803 12-06-2011 16:49:02 23.2 C 4.16 g/m*3 23.2 C 0 km/h
804 12-06-2011 17:01:01 23.5 C 4.23 g/m*3 23.5 C 0 km/h
805 12-06-2011 17:13:01 23 C 4.11 g/m*3 23 C 0 km/h
806 12-06-2011 17:25:02 22.2 C 4.52 g/m*3 22.2 C 0 km/h
807 12-06-2011 17:37:01 23.2 C 4.16 g/m*3 23.2 C 0 km/h
808 12-06-2011 17:49:02 21.9 C 5.98 g/m*3 21.9 C 0 km/h
809 12-06-2011 18:01:02 21.9 C 5.79 g/m*3 21.9 C 0 km/h
810 12-06-2011 18:13:02 23.7 C 4.49 g/m*3 23.7 C 0 km/h
811 12-06-2011 18:25:02 24.4 C 4.45 g/m*3 24.4 C 0 km/h
812 12-06-2011 18:37:02 23.3 C 4.39 g/m*3 23.3 C 0 km/h
813 12-06-2011 18:49:01 22.1 C 4.88 g/m*3 22.1 C 0 km/h
814 12-06-2011 19:01:02 21.8 C 6.91 g/m*3 21.8 C 0 km/h
815 12-06-2011 19:13:02 24 C 4.35 g/m*3 24 C 0 km/h
816 12-06-2011 19:25:01 21.6 C 4.36 g/m*3 21.6 C 0 km/h
817 12-06-2011 19:37:02 19.5 C 7.55 g/m*3 19.5 C 0 km/h
818 12-06-2011 19:49:01 18.6 C 7.64 g/m*3 18.6 C 0 km/h
819 12-06-2011 20:01:02 18.7 C 7.84 g/m*3 18.7 C 0 km/h
820 12-06-2011 20:13:02 18.2 C 7.77 g/m*3 18.2 C 0 km/h
821 12-06-2011 20:25:01 17.2 C 7.61 g/m*3 17.2 C 0 km/h
822 12-06-2011 20:37:02 16.5 C 7.44 g/m*3 16.5 C 0 km/h
823 12-06-2011 20:49:01 16 C 6.54 g/m*3 16 C 0 km/h
824 12-06-2011 21:01:02 15.9 C 6.23 g/m*3 15.9 C 0 km/h
825 12-06-2011 21:13:02 15.6 C 6.25 g/m*3 15.6 C 0 km/h
Sensor: Nr:Datum:Temp:Abs-Feuchte:Windchill:Wind:
Aussen-T/F 826 12-06-2011 21:25:01 15.1 C 6.06 g/m*3 15.1 C 0 km/h
827 12-06-2011 21:37:02 14.9 C 6.25 g/m*3 14.9 C 0 km/h
828 12-06-2011 21:49:01 14.7 C 6.8 g/m*3 14.7 C 0 km/h
829 12-06-2011 22:01:02 14.5 C 7.21 g/m*3 14.5 C 0 km/h
830 12-06-2011 22:13:02 14.2 C 7.2 g/m*3 14.2 C 0 km/h
831 12-06-2011 22:25:02 14 C 7.36 g/m*3 14 C 0 km/h
832 12-06-2011 22:38:03 13.5 C 7.13 g/m*3 13.5 C 0 km/h
833 12-06-2011 22:50:03 13.4 C 7.44 g/m*3 13.4 C 0 km/h
834 12-06-2011 23:02:03 13.2 C 7.12 g/m*3 13.2 C 0 km/h
835 12-06-2011 23:14:03 13.2 C 7.35 g/m*3 13.2 C 0 km/h
836 12-06-2011 23:26:03 13 C 7.03 g/m*3 13 C 0 km/h
837 12-06-2011 23:38:03 12.7 C 7.12 g/m*3 12.7 C 0 km/h
838 12-06-2011 23:50:03 12.6 C 7.08 g/m*3 12.6 C 0 km/h

Legende:
   Min
   Max


Maximal/Minimal-Werte vom 06.06.2011 - 12.06.2011

Sensor Min Max Avg
Temp
(Aussen-T/F)
6.7 °C
12-06-2011  05:25:05
32.1 °C
07-06-2011  16:55:02
16.38 °C
Abs-Feuchte
(Aussen-T/F)
3.99 g/m*3
11-06-2011  15:36:02
13.76 g/m*3
06-06-2011  08:42:02
8.59 g/m*3
Windchill
(Aussen-T/F)
6.7 C
12-06-2011  05:25:05
32.1 C
07-06-2011  16:55:02
16.37 C

Die Daten stammen von einer Davis Vantage Pro 2 Wetter-Station und werden unter Linux mit der Software wview2wettercgi und aufbereitet. Alle Angaben erfolgen ohne Gewähr für ihre Vollständigkeit oder Richtigkeit.
Kontakt: Rainer Krienke krienke@uni-koblenz.de . Meine Webseiten an der Uni Koblenz oder privat.
Version: $Revision: 0.78 $